Time;durP1;ratioP1;P1;durP2;ratioP2;P2;SDS_P1;SDS_P2;PMS_P1;PMS_P2;Temp;Humidity;BMP_temperature;BMP_pressure;BME280_temperature;BME280_humidity;BME280_pressure;Samples;Min_cycle;Max_cycle;Signal;HPM_P1;HPM_P2
2021/05/18 00:01:04;;;;;;;0.40;0.40;;;12.20;99.90;;;;;;5095736;28;20621;-75
2021/05/18 00:03:32;;;;;;;0.63;0.38;;;12.20;99.90;;;;;;5095872;28;20206;-75
2021/05/18 00:06:00;;;;;;;0.63;0.63;;;12.20;99.90;;;;;;5095274;28;20583;-73
2021/05/18 00:08:28;;;;;;;0.57;0.50;;;12.20;99.90;;;;;;5095364;28;20359;-74
2021/05/18 00:13:45;;;;;;;0.68;0.55;;;12.20;99.90;;;;;;5095588;28;20221;-75
2021/05/18 00:16:12;;;;;;;0.93;0.40;;;12.20;99.90;;;;;;5095057;28;20222;-74
2021/05/18 00:18:40;;;;;;;0.50;0.50;;;12.20;99.90;;;;;;5095500;28;20202;-75
2021/05/18 00:21:07;;;;;;;0.40;0.40;;;12.10;99.90;;;;;;5095165;28;20202;-74
2021/05/18 00:23:33;;;;;;;0.60;0.60;;;12.10;99.90;;;;;;5095464;28;20205;-75
2021/05/18 00:26:00;;;;;;;0.50;0.50;;;12.00;99.90;;;;;;5094981;28;20717;-76
2021/05/18 00:28:27;;;;;;;0.85;0.60;;;12.00;99.90;;;;;;5094834;28;20226;-75
2021/05/18 00:30:53;;;;;;;0.52;0.52;;;11.90;99.90;;;;;;5095148;28;20212;-73
2021/05/18 00:33:22;;;;;;;0.40;0.35;;;11.90;99.90;;;;;;5094810;28;20212;-76
2021/05/18 00:35:49;;;;;;;0.40;0.40;;;11.90;99.90;;;;;;5096146;28;20752;-75
2021/05/18 00:38:18;;;;;;;0.85;0.40;;;11.90;99.90;;;;;;5096270;28;20755;-75
2021/05/18 00:40:47;;;;;;;0.75;0.40;;;12.00;99.90;;;;;;5096161;28;20340;-75
2021/05/18 00:43:13;;;;;;;1.13;0.50;;;11.90;99.90;;;;;;5096153;28;20231;-75
2021/05/18 00:45:42;;;;;;;0.50;0.43;;;11.90;99.90;;;;;;5096163;28;20208;-75
2021/05/18 00:48:10;;;;;;;0.98;0.47;;;11.90;99.90;;;;;;5096456;28;20302;-75
2021/05/18 00:50:39;;;;;;;0.50;0.50;;;11.80;99.90;;;;;;5096106;28;20544;-75
2021/05/18 00:53:07;;;;;;;0.65;0.60;;;11.90;99.90;;;;;;5095910;28;20301;-75
2021/05/18 00:55:39;;;;;;;0.60;0.55;;;11.90;99.90;;;;;;5095747;28;20292;-76
2021/05/18 01:00:52;;;;;;;0.40;0.40;;;11.90;99.90;;;;;;5096032;28;20204;-75
2021/05/18 01:03:18;;;;;;;0.60;0.60;;;11.90;99.90;;;;;;5096154;28;20216;-76
2021/05/18 01:08:29;;;;;;;0.90;0.68;;;11.90;99.90;;;;;;5096041;28;20667;-75
2021/05/18 01:10:56;;;;;;;0.93;0.60;;;12.00;99.90;;;;;;5096091;28;20230;-75
2021/05/18 01:13:22;;;;;;;0.52;0.50;;;12.00;99.90;;;;;;5095641;28;20202;-76
2021/05/18 01:15:49;;;;;;;1.00;0.70;;;11.90;99.90;;;;;;5095301;28;20230;-76
2021/05/18 01:18:15;;;;;;;1.27;0.50;;;11.90;99.90;;;;;;5095556;28;20241;-75
2021/05/18 01:20:52;;;;;;;1.38;0.50;;;11.90;99.90;;;;;;5095610;28;20733;-76
2021/05/18 01:23:19;;;;;;;0.60;0.60;;;12.00;99.90;;;;;;5096027;28;20212;-75
2021/05/18 01:25:46;;;;;;;0.68;0.60;;;12.00;99.90;;;;;;5095037;28;20202;-76
2021/05/18 01:28:12;;;;;;;0.60;0.60;;;12.10;99.90;;;;;;5095425;28;20244;-75
2021/05/18 01:30:38;;;;;;;0.70;0.70;;;12.10;99.90;;;;;;5095490;28;20245;-76
2021/05/18 01:33:05;;;;;;;1.30;0.60;;;12.20;99.90;;;;;;5095478;28;20288;-76
2021/05/18 01:35:31;;;;;;;0.68;0.65;;;12.20;99.90;;;;;;5095487;28;20289;-76
2021/05/18 01:37:59;;;;;;;0.50;0.50;;;12.30;99.90;;;;;;5095752;28;20312;-76
2021/05/18 01:43:09;;;;;;;0.98;0.70;;;12.30;99.90;;;;;;5054107;28;20194;-75
2021/05/18 01:45:36;;;;;;;0.77;0.73;;;12.30;99.90;;;;;;5093995;28;20205;-75
2021/05/18 01:48:06;;;;;;;1.30;0.60;;;12.30;99.90;;;;;;5095235;28;20658;-75
2021/05/18 01:50:33;;;;;;;0.70;0.70;;;12.30;99.90;;;;;;5095305;28;20201;-76
2021/05/18 01:53:00;;;;;;;1.35;0.85;;;12.30;99.90;;;;;;5094717;28;20244;-75
2021/05/18 01:55:30;;;;;;;0.80;0.70;;;12.30;99.90;;;;;;5094747;28;20214;-75
2021/05/18 01:57:57;;;;;;;1.02;0.73;;;12.30;99.90;;;;;;5094817;28;20233;-75
2021/05/18 02:00:27;;;;;;;1.35;0.75;;;12.30;99.90;;;;;;5094983;28;20644;-76
2021/05/18 02:02:55;;;;;;;0.73;0.73;;;12.20;99.90;;;;;;5095151;28;20650;-75
2021/05/18 02:05:22;;;;;;;0.80;0.60;;;12.20;99.90;;;;;;5094431;28;20673;-76
2021/05/18 02:07:51;;;;;;;0.70;0.70;;;12.20;99.90;;;;;;5094564;28;20226;-75
2021/05/18 02:10:20;;;;;;;0.70;0.70;;;12.20;99.90;;;;;;5094917;28;20651;-75
2021/05/18 02:12:48;;;;;;;0.88;0.70;;;12.20;99.90;;;;;;5094806;28;20206;-75
2021/05/18 02:15:25;;;;;;;0.95;0.70;;;12.20;99.90;;;;;;5094766;28;20206;-75
2021/05/18 02:18:17;;;;;;;1.27;0.70;;;12.20;99.90;;;;;;5094645;28;20225;-75
2021/05/18 02:20:48;;;;;;;0.55;0.55;;;12.20;99.90;;;;;;5094586;28;20205;-75
2021/05/18 02:25:59;;;;;;;0.50;0.50;;;12.10;99.90;;;;;;5094627;28;20213;-75
2021/05/18 02:28:28;;;;;;;0.55;0.55;;;12.20;99.90;;;;;;5094330;28;20210;-75
2021/05/18 02:30:55;;;;;;;0.50;0.50;;;12.20;99.90;;;;;;5094363;28;20201;-75
2021/05/18 02:33:21;;;;;;;0.63;0.40;;;12.10;99.90;;;;;;5094353;28;20233;-75
2021/05/18 02:35:48;;;;;;;0.60;0.50;;;12.10;99.90;;;;;;5093973;28;20792;-75
2021/05/18 02:38:14;;;;;;;0.50;0.50;;;12.10;99.90;;;;;;5094767;28;20205;-75
2021/05/18 02:40:42;;;;;;;0.50;0.50;;;12.00;99.90;;;;;;5094484;28;20288;-75
2021/05/18 02:43:13;;;;;;;0.80;0.60;;;12.00;99.90;;;;;;5094017;28;20300;-75
2021/05/18 02:45:45;;;;;;;1.13;0.50;;;12.00;99.90;;;;;;5093658;28;20571;-75
2021/05/18 02:50:55;;;;;;;0.60;0.50;;;12.10;99.90;;;;;;5094379;28;20694;-75
2021/05/18 02:53:21;;;;;;;0.60;0.60;;;12.10;99.90;;;;;;5093779;28;20215;-75
2021/05/18 02:55:55;;;;;;;0.63;0.60;;;12.00;99.90;;;;;;5093134;28;20206;-74
2021/05/18 02:58:24;;;;;;;0.95;0.40;;;12.00;99.90;;;;;;5094571;28;20186;-75
2021/05/18 03:00:51;;;;;;;0.88;0.60;;;12.00;99.90;;;;;;5094286;28;20668;-75
2021/05/18 03:03:17;;;;;;;0.60;0.55;;;12.00;99.90;;;;;;5094211;28;20592;-75
2021/05/18 03:05:44;;;;;;;1.10;0.75;;;12.00;99.90;;;;;;5093940;28;20786;-75
2021/05/18 03:08:10;;;;;;;0.90;0.60;;;12.00;99.90;;;;;;5093926;28;20198;-75
2021/05/18 03:10:37;;;;;;;0.80;0.70;;;12.00;99.90;;;;;;5093837;28;20317;-74
2021/05/18 03:13:04;;;;;;;1.15;0.60;;;12.00;99.90;;;;;;5093965;28;20237;-74
2021/05/18 03:15:32;;;;;;;0.60;0.60;;;12.00;99.90;;;;;;5093803;28;20202;-74
2021/05/18 03:17:59;;;;;;;0.57;0.55;;;12.00;99.90;;;;;;5094232;28;20313;-75
2021/05/18 03:20:25;;;;;;;0.50;0.50;;;12.00;99.90;;;;;;5093658;28;20202;-74
2021/05/18 03:22:53;;;;;;;0.75;0.60;;;12.00;99.90;;;;;;5093521;28;20289;-74
2021/05/18 03:25:20;;;;;;;3.00;1.67;;;12.00;99.90;;;;;;5093466;28;20727;-74
2021/05/18 03:27:46;;;;;;;0.77;0.70;;;12.00;99.90;;;;;;5094019;28;20261;-74
2021/05/18 03:30:24;;;;;;;0.50;0.50;;;12.00;99.90;;;;;;5093488;28;20229;-75
2021/05/18 03:35:36;;;;;;;0.80;0.80;;;12.00;99.90;;;;;;5093370;28;20205;-75
2021/05/18 03:38:06;;;;;;;0.65;0.65;;;12.00;99.90;;;;;;5093848;28;20560;-74
2021/05/18 03:40:33;;;;;;;0.80;0.75;;;12.00;99.90;;;;;;5093759;28;20656;-74
2021/05/18 03:43:07;;;;;;;2.35;0.70;;;12.00;99.90;;;;;;5093251;28;20662;-75
2021/05/18 03:45:35;;;;;;;0.70;0.70;;;12.00;99.90;;;;;;5093282;28;20238;-74
2021/05/18 03:53:45;;;;;;;0.65;0.52;;;11.90;99.90;;;;;;5093317;28;20209;-75
2021/05/18 03:59:08;;;;;;;0.60;0.50;;;11.80;99.90;;;;;;5093796;28;20282;-75
2021/05/18 04:04:21;;;;;;;0.60;0.60;;;11.90;99.90;;;;;;5093154;28;20288;-75
2021/05/18 04:12:31;;;;;;;0.60;0.60;;;11.90;99.90;;;;;;5097342;28;20197;-74
2021/05/18 04:17:52;;;;;;;0.55;0.50;;;11.80;99.90;;;;;;5096847;28;20343;-74
2021/05/18 04:20:30;;;;;;;0.68;0.50;;;11.60;99.90;;;;;;5097079;28;20208;-75
2021/05/18 04:23:12;;;;;;;0.52;0.50;;;11.60;99.90;;;;;;5096740;28;20190;-75
2021/05/18 04:26:00;;;;;;;0.60;0.60;;;11.60;99.90;;;;;;5096468;28;20301;-75
2021/05/18 04:39:52;;;;;;;0.75;0.75;;;11.90;99.90;;;;;;5097076;28;20232;-74
2021/05/18 04:43:08;;;;;;;0.80;0.80;;;12.00;99.90;;;;;;5096483;28;20206;-74
2021/05/18 04:49:04;;;;;;;4.68;0.80;;;12.00;99.90;;;;;;5096502;28;20197;-74
2021/05/18 04:51:35;;;;;;;1.10;0.80;;;12.00;99.90;;;;;;5096420;28;20663;-74
2021/05/18 04:54:25;;;;;;;1.95;1.25;;;12.10;99.90;;;;;;5096054;28;20287;-74
2021/05/18 04:59:43;;;;;;;1.77;0.95;;;12.10;99.90;;;;;;5096137;28;20689;-74
2021/05/18 05:02:36;;;;;;;0.70;0.70;;;12.10;99.90;;;;;;5095555;28;20202;-74
2021/05/18 05:07:52;;;;;;;0.70;0.70;;;12.00;99.90;;;;;;5096044;28;20217;-74
2021/05/18 05:10:25;;;;;;;0.70;0.60;;;12.00;99.90;;;;;;5096075;28;20646;-74
2021/05/18 05:14:07;;;;;;;0.68;0.50;;;12.00;99.90;;;;;;5095641;28;20202;-74
2021/05/18 05:15:53;;;;;;;0.60;0.57;;;12.10;99.90;;;;;;5095114;28;20555;-75
2021/05/18 05:18:19;;;;;;;0.60;0.57;;;12.20;99.90;;;;;;5096113;28;20244;-74
2021/05/18 05:20:45;;;;;;;0.60;0.60;;;12.20;99.90;;;;;;5095735;28;20235;-74
2021/05/18 05:23:12;;;;;;;0.70;0.70;;;12.30;99.90;;;;;;5095790;28;20289;-74
2021/05/18 05:25:39;;;;;;;0.80;0.80;;;12.30;99.90;;;;;;5095514;28;20202;-74
2021/05/18 05:28:05;;;;;;;0.73;0.73;;;12.40;99.90;;;;;;5095520;28;20206;-74
2021/05/18 05:30:31;;;;;;;0.77;0.77;;;12.40;99.90;;;;;;5095529;28;20312;-74
2021/05/18 05:32:58;;;;;;;0.65;0.65;;;12.40;99.90;;;;;;5095503;28;20298;-74
2021/05/18 05:35:24;;;;;;;0.70;0.70;;;12.40;99.90;;;;;;5095351;28;20206;-74
2021/05/18 05:37:51;;;;;;;0.85;0.85;;;12.40;99.90;;;;;;5095071;28;20236;-74
2021/05/18 05:40:18;;;;;;;1.10;0.90;;;12.40;99.90;;;;;;5095216;28;20233;-74
2021/05/18 05:42:45;;;;;;;0.90;0.90;;;12.40;99.90;;;;;;5095275;28;20206;-74
2021/05/18 05:45:13;;;;;;;1.30;0.80;;;12.40;99.90;;;;;;5095193;28;20671;-74
2021/05/18 05:47:39;;;;;;;1.77;0.93;;;12.30;99.90;;;;;;5095394;28;20261;-74
2021/05/18 05:50:07;;;;;;;0.80;0.80;;;12.40;99.90;;;;;;5095351;28;20229;-75
2021/05/18 05:52:34;;;;;;;0.68;0.68;;;12.30;99.90;;;;;;5094878;28;20338;-74
2021/05/18 05:55:02;;;;;;;1.60;0.90;;;12.30;99.90;;;;;;5094826;28;20202;-74
2021/05/18 05:57:28;;;;;;;0.80;0.80;;;12.20;99.90;;;;;;5095162;28;20229;-74
2021/05/18 05:59:55;;;;;;;1.50;0.95;;;12.30;99.90;;;;;;5095138;28;20281;-74
2021/05/18 06:02:22;;;;;;;1.60;1.50;;;12.30;99.90;;;;;;5095038;28;20293;-74
2021/05/18 06:04:48;;;;;;;1.25;1.15;;;12.40;99.90;;;;;;5094968;28;20288;-74
2021/05/18 06:07:15;;;;;;;2.85;1.10;;;12.30;99.90;;;;;;5094553;28;20244;-74
2021/05/18 06:09:41;;;;;;;2.88;1.17;;;12.30;99.90;;;;;;5094650;28;20313;-74
2021/05/18 06:12:20;;;;;;;1.13;1.02;;;12.30;99.90;;;;;;5094760;28;20228;-74
2021/05/18 06:14:53;;;;;;;1.42;1.33;;;12.30;99.90;;;;;;5094790;28;20205;-74
2021/05/18 06:17:50;;;;;;;1.10;1.00;;;12.30;99.90;;;;;;5094080;28;20218;-74
2021/05/18 06:37:24;;;;;;;1.67;1.02;;;12.20;99.90;;;;;;5011893;28;20216;-74
2021/05/18 06:42:39;;;;;;;1.25;1.15;;;12.30;99.90;;;;;;5093936;28;20201;-74
2021/05/18 06:47:51;;;;;;;1.42;1.30;;;12.50;99.90;;;;;;5094521;28;20220;-74
2021/05/18 06:50:28;;;;;;;2.10;1.45;;;12.60;99.90;;;;;;5094262;28;20268;-74
2021/05/18 06:52:56;;;;;;;2.45;1.73;;;12.80;99.90;;;;;;5093836;28;20209;-74
2021/05/18 06:55:26;;;;;;;1.40;1.30;;;12.90;99.90;;;;;;5093832;28;20210;-75
2021/05/18 06:57:59;;;;;;;1.15;1.10;;;13.00;99.90;;;;;;5094187;28;20572;-74
2021/05/18 07:00:24;;;;;;;1.63;1.30;;;13.10;99.90;;;;;;5094169;28;20256;-74
2021/05/18 07:02:52;;;;;;;1.70;1.60;;;13.10;99.90;;;;;;5094248;28;20556;-74
2021/05/18 07:05:27;;;;;;;1.17;1.10;;;13.20;99.90;;;;;;5094153;28;20501;-74
2021/05/18 07:07:55;;;;;;;2.00;1.77;;;13.20;99.90;;;;;;5093859;28;20222;-74
2021/05/18 07:10:22;;;;;;;2.15;1.13;;;13.30;99.90;;;;;;5093715;28;20222;-74
2021/05/18 07:12:48;;;;;;;1.10;0.93;;;13.30;99.90;;;;;;5093995;28;20209;-74
2021/05/18 07:15:15;;;;;;;1.52;0.90;;;13.40;99.90;;;;;;5094081;28;20256;-74
2021/05/18 07:17:41;;;;;;;1.13;1.00;;;13.50;99.90;;;;;;5093828;28;20228;-74
2021/05/18 07:20:09;;;;;;;0.90;0.90;;;13.40;99.90;;;;;;5093595;28;20709;-74
2021/05/18 07:22:36;;;;;;;2.50;1.20;;;13.30;99.90;;;;;;5094125;28;20212;-74
2021/05/18 07:25:03;;;;;;;1.48;0.80;;;13.30;99.90;;;;;;5093887;28;20667;-74
2021/05/18 07:27:29;;;;;;;6.85;4.35;;;13.50;99.90;;;;;;5094103;28;20218;-74
2021/05/18 07:29:56;;;;;;;6.10;3.95;;;13.70;99.90;;;;;;5094037;28;20222;-74
2021/05/18 07:32:22;;;;;;;1.23;1.13;;;13.80;99.90;;;;;;5094000;28;20293;-74
2021/05/18 07:34:50;;;;;;;1.05;1.00;;;14.00;99.90;;;;;;5093197;28;20198;-74
2021/05/18 07:37:16;;;;;;;1.10;1.00;;;14.10;99.90;;;;;;5093385;28;20223;-74
2021/05/18 07:39:44;;;;;;;0.85;0.85;;;14.20;99.90;;;;;;5093797;28;20227;-74
2021/05/18 07:42:10;;;;;;;1.15;1.05;;;14.30;99.90;;;;;;5094045;28;20552;-74
2021/05/18 07:44:37;;;;;;;1.25;1.15;;;14.30;99.90;;;;;;5096751;28;20234;-74
2021/05/18 07:47:03;;;;;;;0.85;0.85;;;14.20;99.90;;;;;;5097204;28;20218;-74
2021/05/18 07:49:32;;;;;;;1.88;1.45;;;14.20;99.90;;;;;;5097291;28;20221;-74
2021/05/18 08:00:25;;;;;;;0.90;0.90;;;13.80;99.90;;;;;;5097109;28;20228;-74
2021/05/18 08:05:36;;;;;;;1.50;1.40;;;13.50;99.90;;;;;;5097266;28;20308;-74
2021/05/18 08:08:02;;;;;;;1.30;1.20;;;13.40;99.90;;;;;;5096868;28;20229;-74
2021/05/18 08:10:35;;;;;;;2.13;1.02;;;13.40;99.90;;;;;;5096810;28;20226;-74
2021/05/18 08:13:02;;;;;;;1.40;1.30;;;13.50;99.90;;;;;;5097190;28;20202;-74
2021/05/18 08:16:00;;;;;;;1.40;1.10;;;13.60;99.90;;;;;;5096939;28;20297;-74
2021/05/18 08:18:37;;;;;;;1.75;1.40;;;13.70;99.90;;;;;;5096850;28;20198;-74
2021/05/18 08:21:33;;;;;;;1.33;1.20;;;13.80;99.90;;;;;;5096986;28;20292;-74
2021/05/18 09:29:49;;;;;;;1.47;1.00;;;20.20;94.10;;;;;;5079833;28;20464;-73
2021/05/18 10:36:08;;;;;;;0.93;0.70;;;19.10;90.40;;;;;;5031811;28;20220;-73
2021/05/18 10:38:39;;;;;;;1.13;0.83;;;19.90;87.60;;;;;;5031863;28;20473;-72
2021/05/18 10:41:13;;;;;;;1.23;0.80;;;20.10;83.70;;;;;;5052228;28;21033;-73
2021/05/18 10:43:41;;;;;;;1.90;0.80;;;20.40;80.60;;;;;;5074197;28;20509;-72
2021/05/18 10:46:22;;;;;;;0.90;0.90;;;20.60;79.10;;;;;;5074054;28;20514;-72
2021/05/18 10:48:54;;;;;;;1.23;0.93;;;20.80;79.60;;;;;;5073744;28;20445;-72
2021/05/18 10:51:26;;;;;;;1.07;0.83;;;20.70;77.40;;;;;;5074019;28;20446;-72
2021/05/18 10:54:22;;;;;;;0.80;0.80;;;20.50;77.20;;;;;;5073565;28;20467;-72
2021/05/18 10:57:29;;;;;;;0.93;0.87;;;20.30;80.30;;;;;;5073682;28;20856;-72
2021/05/18 10:59:59;;;;;;;0.80;0.80;;;19.80;79.20;;;;;;5073861;28;20438;-72
2021/05/18 11:02:32;;;;;;;0.85;0.80;;;19.40;77.80;;;;;;5073965;28;20985;-72
2021/05/18 11:05:01;;;;;;;0.70;0.70;;;18.90;81.10;;;;;;5073365;28;20637;-72
2021/05/18 11:07:33;;;;;;;0.80;0.80;;;18.80;79.10;;;;;;5073627;28;20323;-72
2021/05/18 11:10:01;;;;;;;1.63;0.80;;;18.70;76.90;;;;;;5073721;28;20261;-72
2021/05/18 11:12:27;;;;;;;1.92;0.70;;;18.70;77.70;;;;;;5072590;28;20221;-72
2021/05/18 11:15:12;;;;;;;0.82;0.82;;;18.30;74.50;;;;;;5073889;28;20203;-72
2021/05/18 11:17:40;;;;;;;3.05;0.90;;;18.10;75.70;;;;;;5074774;28;20253;-72
2021/05/18 11:20:10;;;;;;;1.25;0.70;;;18.10;77.20;;;;;;5077813;28;20206;-72
2021/05/18 11:25:38;;;;;;;0.70;0.70;;;18.30;77.20;;;;;;5077827;28;20221;-72
2021/05/18 11:28:09;;;;;;;0.90;0.88;;;18.50;76.40;;;;;;5077222;28;20716;-72
2021/05/18 11:30:37;;;;;;;0.93;0.80;;;18.50;73.10;;;;;;5077327;28;20218;-72
2021/05/18 11:33:04;;;;;;;1.38;1.15;;;18.50;75.50;;;;;;5077620;28;20237;-72
2021/05/18 11:35:30;;;;;;;0.88;0.88;;;18.40;73.90;;;;;;5077460;28;20247;-72
2021/05/18 11:38:01;;;;;;;2.05;0.63;;;18.00;77.00;;;;;;5077898;28;20325;-73
2021/05/18 11:40:28;;;;;;;0.70;0.70;;;17.70;78.40;;;;;;5077261;28;20230;-72
2021/05/18 11:42:55;;;;;;;0.68;0.60;;;17.90;78.80;;;;;;5077295;28;20285;-72
2021/05/18 11:45:22;;;;;;;1.05;0.70;;;17.90;74.50;;;;;;5077193;28;20298;-72
2021/05/18 11:47:52;;;;;;;0.70;0.60;;;17.80;72.90;;;;;;5076949;28;20231;-72
2021/05/18 11:50:26;;;;;;;1.40;0.70;;;17.50;74.20;;;;;;5076834;28;20725;-71
2021/05/18 11:52:54;;;;;;;1.33;0.75;;;16.90;81.80;;;;;;5076864;28;20218;-72
2021/05/18 11:55:27;;;;;;;1.15;0.70;;;16.00;91.40;;;;;;5076810;28;20201;-72
2021/05/18 11:57:54;;;;;;;1.00;0.60;;;15.30;96.50;;;;;;5077276;28;20228;-71
2021/05/18 12:00:24;;;;;;;1.50;0.70;;;15.00;99.90;;;;;;5076729;28;20253;-71
2021/05/18 12:03:01;;;;;;;2.58;1.30;;;14.90;99.90;;;;;;5077092;28;20206;-71
2021/05/18 12:05:27;;;;;;;0.70;0.70;;;14.80;99.90;;;;;;5076505;28;20234;-72
2021/05/18 12:07:53;;;;;;;1.30;0.60;;;14.70;99.90;;;;;;5076742;28;20224;-71
2021/05/18 12:10:32;;;;;;;1.02;0.55;;;14.70;99.90;;;;;;5076684;28;20313;-71
2021/05/18 12:12:59;;;;;;;1.15;0.55;;;14.90;99.90;;;;;;5076832;28;20242;-72
2021/05/18 12:15:25;;;;;;;3.88;2.15;;;15.20;99.90;;;;;;5076723;28;20219;-72
2021/05/18 12:17:56;;;;;;;2.33;2.00;;;15.50;99.90;;;;;;5076132;28;20224;-72
2021/05/18 12:20:24;;;;;;;1.50;0.80;;;15.80;99.90;;;;;;5076334;28;20655;-71
2021/05/18 12:22:51;;;;;;;2.47;0.70;;;16.00;99.90;;;;;;5076636;28;20296;-72
2021/05/18 12:25:35;;;;;;;1.38;0.60;;;16.20;99.90;;;;;;5076579;28;20296;-72
2021/05/18 12:28:09;;;;;;;1.55;0.75;;;16.40;99.90;;;;;;5076660;28;20229;-72
2021/05/18 12:30:37;;;;;;;0.80;0.80;;;16.70;99.90;;;;;;5075297;28;20272;-72
2021/05/18 12:33:04;;;;;;;0.60;0.60;;;16.90;99.90;;;;;;5076224;28;20206;-73
2021/05/18 12:35:31;;;;;;;1.00;0.52;;;17.00;96.00;;;;;;5076001;28;20285;-73
2021/05/18 12:37:58;;;;;;;1.40;0.80;;;17.10;95.60;;;;;;5076276;28;20229;-73
2021/05/18 12:40:30;;;;;;;0.50;0.50;;;17.20;94.70;;;;;;5076510;28;20293;-72
2021/05/18 12:43:09;;;;;;;1.27;0.70;;;17.30;96.50;;;;;;5075882;28;20701;-73
2021/05/18 12:45:37;;;;;;;2.15;0.60;;;17.40;95.30;;;;;;5075876;28;20264;-72
2021/05/18 12:48:04;;;;;;;0.60;0.60;;;17.50;92.70;;;;;;5076315;28;20225;-73
2021/05/18 12:50:44;;;;;;;0.60;0.60;;;17.40;90.90;;;;;;5076046;28;20282;-73
2021/05/18 12:53:29;;;;;;;1.00;0.90;;;17.40;93.50;;;;;;5075666;28;20673;-72
2021/05/18 12:55:56;;;;;;;0.63;0.63;;;17.10;91.20;;;;;;5075638;28;20206;-72
2021/05/18 12:58:28;;;;;;;0.70;0.70;;;16.80;91.50;;;;;;5076222;28;20249;-72
2021/05/18 13:01:05;;;;;;;1.63;0.90;;;16.70;92.20;;;;;;5076173;28;20303;-72
2021/05/18 13:03:31;;;;;;;0.95;0.90;;;16.60;94.80;;;;;;5076029;28;20294;-72
2021/05/18 13:05:59;;;;;;;1.58;0.82;;;16.60;96.10;;;;;;5075394;28;20297;-72
2021/05/18 13:08:30;;;;;;;0.60;0.60;;;16.70;96.80;;;;;;5075589;28;20205;-72
2021/05/18 13:11:08;;;;;;;0.80;0.68;;;16.80;97.70;;;;;;5075734;28;20227;-72
2021/05/18 13:13:46;;;;;;;0.93;0.85;;;17.00;98.90;;;;;;5075880;28;20259;-72
2021/05/18 13:16:15;;;;;;;1.63;0.70;;;17.20;96.80;;;;;;5075134;28;20231;-73
2021/05/18 13:18:52;;;;;;;0.90;0.70;;;17.30;94.40;;;;;;5075485;28;20206;-72
2021/05/18 13:21:21;;;;;;;0.70;0.70;;;17.40;94.00;;;;;;5075566;28;20287;-73
2021/05/18 13:26:39;;;;;;;2.75;0.60;;;17.80;92.40;;;;;;5077471;28;20681;-73
2021/05/18 13:29:08;;;;;;;0.60;0.60;;;17.70;92.10;;;;;;5075017;28;20732;-72
2021/05/18 13:31:36;;;;;;;0.70;0.60;;;17.70;90.60;;;;;;5075242;28;20226;-72
2021/05/18 13:34:03;;;;;;;1.60;0.60;;;17.60;90.40;;;;;;5074974;28;20203;-72
2021/05/18 13:36:33;;;;;;;1.05;0.70;;;17.60;91.00;;;;;;5074601;28;20222;-72
2021/05/18 13:39:00;;;;;;;0.60;0.60;;;17.50;90.90;;;;;;5075358;28;20649;-72
2021/05/18 13:41:26;;;;;;;1.60;0.50;;;17.40;91.40;;;;;;5074865;28;20313;-72
2021/05/18 13:43:52;;;;;;;0.40;0.40;;;17.50;88.90;;;;;;5075011;28;20208;-72
2021/05/18 13:46:19;;;;;;;0.65;0.65;;;17.70;85.30;;;;;;5074444;28;20558;-72
2021/05/18 13:48:45;;;;;;;0.50;0.50;;;17.80;82.80;;;;;;5074857;28;20213;-72
2021/05/18 13:51:14;;;;;;;0.55;0.50;;;17.80;82.50;;;;;;5074973;28;20218;-72
2021/05/18 13:53:41;;;;;;;0.50;0.50;;;17.80;77.10;;;;;;5074557;28;20249;-72
2021/05/18 13:56:08;;;;;;;1.50;1.35;;;18.00;79.00;;;;;;5074238;28;20689;-72
2021/05/18 13:58:34;;;;;;;1.27;0.50;;;18.00;81.30;;;;;;5074620;28;20297;-72
2021/05/18 14:01:03;;;;;;;0.75;0.75;;;18.00;82.30;;;;;;5074687;28;20231;-71
2021/05/18 14:03:30;;;;;;;0.90;0.90;;;17.80;84.70;;;;;;5074687;28;20207;-72
2021/05/18 14:05:56;;;;;;;0.70;0.70;;;17.40;87.50;;;;;;5074426;28;20289;-72
2021/05/18 14:08:24;;;;;;;2.45;1.00;;;17.10;88.10;;;;;;5074413;28;20199;-72
2021/05/18 14:10:54;;;;;;;0.82;0.60;;;16.70;91.50;;;;;;5074153;28;20218;-71
2021/05/18 14:13:21;;;;;;;1.95;0.70;;;16.20;91.70;;;;;;5074575;28;20643;-71
2021/05/18 14:15:48;;;;;;;1.60;0.60;;;15.60;98.40;;;;;;5073863;28;20207;-71
2021/05/18 14:18:15;;;;;;;0.80;0.80;;;14.80;99.90;;;;;;5074906;28;20211;-71
2021/05/18 14:20:42;;;;;;;0.60;0.60;;;14.50;99.90;;;;;;5074557;28;20203;-71
2021/05/18 14:23:10;;;;;;;0.95;0.70;;;14.30;99.90;;;;;;5074142;28;20245;-71
2021/05/18 14:25:36;;;;;;;1.08;0.80;;;14.10;99.90;;;;;;5074035;28;20236;-71
2021/05/18 14:28:05;;;;;;;0.60;0.60;;;14.00;99.90;;;;;;5074099;28;20313;-71
2021/05/18 14:30:31;;;;;;;3.65;1.25;;;14.00;99.90;;;;;;5074039;28;20214;-71
2021/05/18 14:32:58;;;;;;;1.40;0.70;;;14.20;99.90;;;;;;5074415;28;20302;-71
2021/05/18 14:35:27;;;;;;;3.60;0.90;;;14.60;99.90;;;;;;5073738;28;20349;-72
2021/05/18 14:37:57;;;;;;;3.15;0.82;;;14.90;99.90;;;;;;5073717;28;20717;-71
2021/05/18 14:43:18;;;;;;;0.68;0.68;;;15.30;99.90;;;;;;5072273;28;20200;-72
2021/05/18 14:45:45;;;;;;;0.65;0.65;;;15.50;99.90;;;;;;5073795;28;20559;-72
2021/05/18 14:53:52;;;;;;;0.90;0.80;;;15.90;99.90;;;;;;5073469;28;20207;-72
2021/05/18 14:56:18;;;;;;;0.63;0.63;;;15.90;99.90;;;;;;5073679;28;20549;-72
2021/05/18 14:58:45;;;;;;;0.98;0.60;;;15.90;99.90;;;;;;5073781;28;20295;-72
2021/05/18 15:01:12;;;;;;;1.23;0.70;;;16.00;99.90;;;;;;5073915;28;20297;-72
2021/05/18 15:03:38;;;;;;;0.50;0.50;;;16.20;99.90;;;;;;5073936;28;20209;-71
2021/05/18 15:06:04;;;;;;;1.30;0.40;;;15.90;99.90;;;;;;5073407;28;20309;-72
2021/05/18 15:08:31;;;;;;;1.10;0.63;;;15.80;99.70;;;;;;5073247;28;20205;-72
2021/05/18 15:11:02;;;;;;;0.88;0.52;;;15.70;99.90;;;;;;5073985;28;20320;-72
2021/05/18 15:13:28;;;;;;;0.70;0.50;;;15.70;99.90;;;;;;5073765;28;20209;-72
2021/05/18 15:15:55;;;;;;;0.60;0.60;;;15.70;99.90;;;;;;5073188;28;20765;-72
2021/05/18 15:18:22;;;;;;;0.70;0.40;;;15.80;99.90;;;;;;5073528;28;20288;-72
2021/05/18 15:20:49;;;;;;;0.60;0.50;;;15.90;99.80;;;;;;5073413;28;20202;-72
2021/05/18 15:23:15;;;;;;;0.50;0.50;;;15.80;99.90;;;;;;5074095;28;20670;-72
2021/05/18 15:25:41;;;;;;;0.60;0.55;;;15.90;99.60;;;;;;5073220;28;20206;-72
2021/05/18 15:28:08;;;;;;;0.73;0.60;;;16.00;97.80;;;;;;5073892;28;20529;-72
2021/05/18 15:30:34;;;;;;;0.73;0.50;;;16.20;97.90;;;;;;5073095;28;20308;-73
2021/05/18 15:33:02;;;;;;;1.20;0.60;;;16.30;97.70;;;;;;5073747;28;20397;-72
2021/05/18 15:35:28;;;;;;;0.60;0.60;;;16.40;97.40;;;;;;5073472;28;20653;-72
2021/05/18 15:37:55;;;;;;;2.45;1.73;;;16.50;96.50;;;;;;5072928;28;20229;-73
2021/05/18 15:40:21;;;;;;;2.58;1.77;;;16.50;96.00;;;;;;5073368;28;20206;-73
2021/05/18 15:42:47;;;;;;;1.25;0.70;;;16.50;95.30;;;;;;5073427;28;20210;-72
2021/05/18 15:45:14;;;;;;;2.72;0.80;;;16.60;96.10;;;;;;5073461;28;20208;-72
2021/05/18 15:47:41;;;;;;;0.93;0.85;;;16.70;94.80;;;;;;5073229;28;20282;-73
2021/05/18 15:50:10;;;;;;;0.73;0.70;;;16.80;96.30;;;;;;5073506;28;20239;-72
2021/05/18 15:52:36;;;;;;;0.90;0.90;;;16.80;94.40;;;;;;5073160;28;20218;-73
2021/05/18 15:55:03;;;;;;;1.75;1.23;;;16.90;96.00;;;;;;5073158;28;20199;-72
2021/05/18 15:57:30;;;;;;;1.35;1.00;;;17.00;95.90;;;;;;5073123;28;20223;-73
2021/05/18 15:59:56;;;;;;;1.67;0.95;;;17.10;95.30;;;;;;5073347;28;20653;-72
2021/05/18 16:02:22;;;;;;;3.17;2.17;;;17.00;96.80;;;;;;5073119;28;20242;-72
2021/05/18 16:04:49;;;;;;;3.70;1.58;;;16.80;95.20;;;;;;5074887;28;20294;-72
2021/05/18 16:07:18;;;;;;;1.10;1.10;;;16.70;94.00;;;;;;5076675;28;20257;-73
2021/05/18 16:09:44;;;;;;;1.20;1.10;;;16.50;95.80;;;;;;5076576;28;20201;-73
2021/05/18 16:12:11;;;;;;;1.10;0.95;;;16.40;94.20;;;;;;5076862;28;20296;-73
2021/05/18 16:14:38;;;;;;;1.08;1.08;;;16.20;94.00;;;;;;5076811;28;20217;-73
2021/05/18 16:17:04;;;;;;;1.33;0.82;;;16.00;94.80;;;;;;5076079;28;20229;-72
2021/05/18 16:19:31;;;;;;;1.35;0.70;;;15.30;96.80;;;;;;5077179;28;20222;-71
2021/05/18 16:21:57;;;;;;;1.20;0.75;;;14.50;99.90;;;;;;5076516;28;20631;-71
2021/05/18 16:24:25;;;;;;;2.28;0.90;;;13.80;99.90;;;;;;5076424;28;20295;-71
2021/05/18 16:26:53;;;;;;;2.47;1.13;;;13.50;99.90;;;;;;5076457;28;20595;-71
2021/05/18 16:29:20;;;;;;;2.50;1.15;;;13.20;99.90;;;;;;5076918;28;20210;-71
2021/05/18 16:31:46;;;;;;;1.05;0.90;;;13.10;99.90;;;;;;5076077;28;20223;-71
2021/05/18 16:34:13;;;;;;;1.67;1.00;;;13.00;99.90;;;;;;5076249;28;20202;-71
2021/05/18 16:36:39;;;;;;;1.20;1.10;;;12.80;99.90;;;;;;5076253;28;20313;-71
2021/05/18 16:39:08;;;;;;;0.90;0.90;;;12.80;99.90;;;;;;5076303;28;20289;-71
2021/05/18 16:41:37;;;;;;;1.90;1.20;;;12.80;99.90;;;;;;5076433;28;20203;-71
2021/05/18 16:44:05;;;;;;;1.60;1.40;;;12.90;99.90;;;;;;5076641;28;20350;-71
2021/05/18 16:46:31;;;;;;;1.70;1.40;;;13.00;99.90;;;;;;5075907;28;20499;-72
2021/05/18 16:48:58;;;;;;;1.58;1.35;;;13.00;99.90;;;;;;5076012;28;20206;-71
2021/05/18 16:51:25;;;;;;;1.85;1.40;;;13.00;99.90;;;;;;5075996;28;20319;-71
2021/05/18 16:53:53;;;;;;;1.30;1.10;;;13.10;99.90;;;;;;5076146;28;20215;-71
2021/05/18 16:56:20;;;;;;;1.00;1.00;;;13.20;99.90;;;;;;5075600;28;20234;-71